createdAt,value
2018-03-11T05:52:58.922Z,63.3
2018-03-11T05:53:49.021Z,63.3
2018-03-11T05:54:38.228Z,63.3
2018-03-11T05:55:28.074Z,63.3
2018-03-11T05:56:19.185Z,63.3
2018-03-11T05:57:07.829Z,63.2
2018-03-11T05:57:58.459Z,63.2
2018-03-11T05:58:48.234Z,63.2
2018-03-11T05:59:38.576Z,63.2
2018-03-11T06:00:28.665Z,63.2
2018-03-11T06:01:18.589Z,63.2
2018-03-11T06:02:09.041Z,63.2
2018-03-11T06:02:58.436Z,63.1
2018-03-11T06:03:49.446Z,63.1
2018-03-11T06:04:39.248Z,63.1
2018-03-11T06:05:29.082Z,63.1
2018-03-11T06:06:19.431Z,63.1
2018-03-11T06:07:09.509Z,63.1
2018-03-11T06:07:59.769Z,63.1
2018-03-11T06:08:49.566Z,63.1
2018-03-11T06:09:39.574Z,63.1
2018-03-11T06:10:30.010Z,63.1
2018-03-11T06:11:19.433Z,63.1
2018-03-11T06:12:09.209Z,63.1
2018-03-11T06:12:59.875Z,63.1
2018-03-11T06:13:49.921Z,63.1
2018-03-11T06:14:39.939Z,63
2018-03-11T06:15:29.531Z,63
2018-03-11T06:16:20.071Z,63
2018-03-11T06:17:09.651Z,63
2018-03-11T06:17:59.910Z,63
2018-03-11T06:18:50.329Z,63
2018-03-11T06:19:40.291Z,63
2018-03-11T06:20:29.503Z,62.9
2018-03-11T06:21:19.865Z,62.9
2018-03-11T06:22:09.511Z,62.9
2018-03-11T06:23:00.643Z,62.9
2018-03-11T06:23:50.315Z,62.9
2018-03-11T06:24:39.796Z,62.9
2018-03-11T06:25:30.325Z,62.9
2018-03-11T06:26:20.121Z,62.9
2018-03-11T06:27:10.929Z,62.9
2018-03-11T06:28:00.424Z,62.9
2018-03-11T06:28:50.665Z,62.9
2018-03-11T06:29:41.305Z,62.9
2018-03-11T06:30:31.392Z,62.9
2018-03-11T06:31:20.862Z,62.9
2018-03-11T06:32:10.422Z,62.9
2018-03-11T06:33:01.258Z,62.8
2018-03-11T06:33:51.859Z,62.8
2018-03-11T06:34:41.934Z,62.8
2018-03-11T06:35:31.417Z,62.8
2018-03-11T06:36:22.057Z,62.8
2018-03-11T06:37:12.114Z,62.8
2018-03-11T06:38:01.902Z,62.8
2018-03-11T06:38:51.487Z,62.8
2018-03-11T06:39:42.165Z,62.8
2018-03-11T06:40:31.817Z,62.8
2018-03-11T06:41:21.390Z,62.8
2018-03-11T06:42:12.207Z,62.8
2018-03-11T06:43:02.529Z,62.7
2018-03-11T06:43:52.022Z,62.8
2018-03-11T06:44:42.635Z,62.7
2018-03-11T06:45:32.709Z,62.7
2018-03-11T06:46:22.760Z,62.7
2018-03-11T06:47:12.811Z,62.7
2018-03-11T06:48:02.882Z,62.7
2018-03-11T06:48:52.682Z,62.7
2018-03-11T06:49:42.714Z,62.6
2018-03-11T06:50:32.787Z,62.6
2018-03-11T06:51:22.082Z,62.6
2018-03-11T06:52:12.194Z,62.6
2018-03-11T06:53:02.696Z,62.6
2018-03-11T06:53:51.998Z,62.6
2018-03-11T06:54:43.103Z,62.6
2018-03-11T06:55:32.858Z,62.6
2018-03-11T06:56:23.340Z,62.6
2018-03-11T06:57:13.297Z,62.6
2018-03-11T06:58:02.576Z,62.6
2018-03-11T06:58:53.103Z,62.6
2018-03-11T06:59:43.178Z,62.6
2018-03-11T07:00:33.492Z,62.6
2018-03-11T07:01:23.303Z,62.6
2018-03-11T07:02:13.066Z,62.5
2018-03-11T07:03:02.963Z,62.5
2018-03-11T07:03:53.485Z,62.5
2018-03-11T07:04:43.851Z,62.5
2018-03-11T07:05:33.401Z,62.5
2018-03-11T07:06:22.461Z,62.5
2018-03-11T07:07:13.828Z,62.5
2018-03-11T07:08:03.788Z,62.5
2018-03-11T07:08:54.383Z,62.4
2018-03-11T07:09:44.474Z,62.4
2018-03-11T07:10:34.226Z,62.4
2018-03-11T07:11:24.070Z,62.4
2018-03-11T07:12:14.337Z,62.4
2018-03-11T07:13:04.705Z,62.4
2018-03-11T07:13:54.469Z,62.4
2018-03-11T07:14:44.137Z,62.4
2018-03-11T07:15:34.394Z,62.4
2018-03-11T07:16:23.692Z,62.4
2018-03-11T07:17:13.246Z,62.4
2018-03-11T07:18:03.602Z,62.4
2018-03-11T07:18:53.652Z,62.4
2018-03-11T07:19:43.849Z,62.4
2018-03-11T07:20:33.496Z,62.3
2018-03-11T07:21:23.924Z,62.3
2018-03-11T07:22:14.134Z,62.3
2018-03-11T07:23:04.210Z,62.3
2018-03-11T07:23:54.304Z,62.3
2018-03-11T07:24:43.989Z,62.3
2018-03-11T07:25:34.811Z,62.3
2018-03-11T07:26:25.161Z,62.3
2018-03-11T07:27:13.803Z,62.3
2018-03-11T07:28:04.315Z,62.3
2018-03-11T07:28:55.349Z,62.3
2018-03-11T07:29:44.564Z,62.3
2018-03-11T07:30:35.168Z,62.2
2018-03-11T07:31:24.276Z,62.2
2018-03-11T07:32:14.158Z,62.2
2018-03-11T07:33:04.817Z,62.2
2018-03-11T07:33:54.884Z,62.2
2018-03-11T07:34:45.328Z,62.2
2018-03-11T07:35:35.561Z,62.2
2018-03-11T07:36:25.338Z,62.1
2018-03-11T07:37:14.991Z,62.1
2018-03-11T07:38:05.246Z,62.1
2018-03-11T07:38:55.028Z,62.1
2018-03-11T07:39:45.545Z,62.1
2018-03-11T07:40:35.422Z,62.1
2018-03-11T07:41:26.244Z,62.1
2018-03-11T07:42:16.048Z,62.1
2018-03-11T07:43:05.215Z,62.1
2018-03-11T07:43:55.655Z,62.1
2018-03-11T07:44:45.946Z,62.1
2018-03-11T07:45:35.786Z,62.1
2018-03-11T07:46:25.639Z,62.1
2018-03-11T07:47:16.013Z,62.1
2018-03-11T07:48:05.888Z,62
2018-03-11T07:48:55.940Z,62
2018-03-11T07:49:45.895Z,62
2018-03-11T07:50:36.150Z,62
2018-03-11T07:51:25.319Z,62
2018-03-11T07:52:15.587Z,62
2018-03-11T07:53:05.750Z,62
2018-03-11T07:53:56.473Z,61.9
2018-03-11T07:54:46.448Z,62
2018-03-11T07:55:36.832Z,61.9
2018-03-11T07:56:26.362Z,61.9
2018-03-11T07:57:16.912Z,61.9
2018-03-11T07:58:07.006Z,61.9
2018-03-11T07:58:55.499Z,61.9
2018-03-11T07:59:46.837Z,61.9
2018-03-11T08:00:36.299Z,61.9
2018-03-11T08:01:26.372Z,61.9
2018-03-11T08:02:16.900Z,61.9
2018-03-11T08:03:07.540Z,61.9
2018-03-11T08:03:57.595Z,61.9
2018-03-11T08:04:47.644Z,61.9
2018-03-11T08:05:37.052Z,61.9
2018-03-11T08:06:27.019Z,61.8
2018-03-11T08:07:17.547Z,61.8
2018-03-11T08:08:07.388Z,61.9
2018-03-11T08:08:57.070Z,61.8
2018-03-11T08:09:47.441Z,61.8
2018-03-11T08:10:37.819Z,61.8
2018-03-11T08:11:27.569Z,61.8
2018-03-11T08:12:17.625Z,61.8
2018-03-11T08:13:07.966Z,61.8
2018-03-11T08:13:58.230Z,61.8
2018-03-11T08:14:47.611Z,61.8
2018-03-11T08:15:37.678Z,61.8
2018-03-11T08:16:28.225Z,61.8
2018-03-11T08:17:18.187Z,61.8
2018-03-11T08:18:08.070Z,61.8
2018-03-11T08:18:57.610Z,61.8
2018-03-11T08:19:47.478Z,61.7
2018-03-11T08:20:38.633Z,61.7
2018-03-11T08:21:28.679Z,61.7
2018-03-11T08:22:18.252Z,61.7
2018-03-11T08:23:08.283Z,61.7
2018-03-11T08:23:58.762Z,61.6
2018-03-11T08:24:48.563Z,61.7
2018-03-11T08:25:38.021Z,61.6
2018-03-11T08:26:28.740Z,61.6
2018-03-11T08:27:19.308Z,61.6
2018-03-11T08:28:09.140Z,61.6
2018-03-11T08:28:58.702Z,61.6
2018-03-11T08:29:49.188Z,61.6
2018-03-11T08:30:38.848Z,61.6
2018-03-11T08:31:29.041Z,61.6
2018-03-11T08:32:19.955Z,61.6
2018-03-11T08:33:09.200Z,61.6
2018-03-11T08:33:59.506Z,61.6
2018-03-11T08:34:49.637Z,61.6
2018-03-11T08:35:39.502Z,61.6
2018-03-11T08:36:29.360Z,61.6
2018-03-11T08:37:19.435Z,61.5
2018-03-11T08:38:08.818Z,61.5
2018-03-11T08:38:59.647Z,61.5
2018-03-11T08:39:49.914Z,61.5
2018-03-11T08:40:39.695Z,61.5
2018-03-11T08:41:29.545Z,61.5
2018-03-11T08:42:19.899Z,61.5
2018-03-11T08:43:10.062Z,61.4
2018-03-11T08:44:00.021Z,61.4
2018-03-11T08:44:50.539Z,61.4
2018-03-11T08:45:40.872Z,61.4
2018-03-11T08:46:30.659Z,61.4
2018-03-11T08:47:20.732Z,61.4
2018-03-11T08:48:11.078Z,61.4
2018-03-11T08:49:00.297Z,61.4
2018-03-11T08:49:50.531Z,61.4
2018-03-11T08:50:40.796Z,61.4
2018-03-11T08:51:30.762Z,61.4
2018-03-11T08:52:21.071Z,61.4
2018-03-11T08:53:11.147Z,61.4
2018-03-11T08:54:01.543Z,61.4
2018-03-11T08:54:51.251Z,61.3
2018-03-11T08:55:41.587Z,61.3
2018-03-11T08:56:30.430Z,61.3
2018-03-11T08:57:21.444Z,61.3
2018-03-11T08:58:11.538Z,61.3
2018-03-11T08:59:00.806Z,61.3
2018-03-11T08:59:51.384Z,61.3
2018-03-11T09:00:41.977Z,61.3
2018-03-11T09:01:30.982Z,61.3
2018-03-11T09:02:21.839Z,61.3
2018-03-11T09:03:12.153Z,61.2
2018-03-11T09:04:02.224Z,61.3
2018-03-11T09:04:52.270Z,61.2
2018-03-11T09:05:42.050Z,61.2
2018-03-11T09:06:32.375Z,61.3
2018-03-11T09:07:22.160Z,61.3
2018-03-11T09:08:12.496Z,61.3
2018-03-11T09:09:02.577Z,61.3
2018-03-11T09:09:52.608Z,61.4
2018-03-11T09:10:42.709Z,61.4
2018-03-11T09:11:32.725Z,61.4
2018-03-11T09:12:22.520Z,61.5
2018-03-11T09:13:12.570Z,61.6
2018-03-11T09:14:02.702Z,61.6
2018-03-11T09:14:52.969Z,61.7
2018-03-11T09:15:42.841Z,61.8
2018-03-11T09:16:33.092Z,61.8
2018-03-11T09:17:22.714Z,61.8
2018-03-11T09:18:12.498Z,61.8
2018-03-11T09:19:02.429Z,61.9
2018-03-11T09:19:52.321Z,61.9
2018-03-11T09:20:42.972Z,62
2018-03-11T09:21:32.960Z,62.1
2018-03-11T09:22:23.300Z,62.1
2018-03-11T09:23:13.042Z,62.2
2018-03-11T09:24:02.496Z,62.3
2018-03-11T09:24:52.880Z,62.3
2018-03-11T09:25:42.838Z,62.4
2018-03-11T09:26:33.363Z,62.4
2018-03-11T09:27:22.962Z,62.5
2018-03-11T09:28:13.115Z,62.6
2018-03-11T09:29:03.152Z,62.6
2018-03-11T09:29:53.821Z,62.7
2018-03-11T09:30:43.573Z,62.8
2018-03-11T09:31:33.757Z,62.8
2018-03-11T09:32:23.229Z,62.9
2018-03-11T09:33:13.499Z,62.9
2018-03-11T09:34:03.553Z,63
2018-03-11T09:34:53.882Z,63
2018-03-11T09:35:43.667Z,63.1
2018-03-11T09:36:33.439Z,63.1
2018-03-11T09:37:23.876Z,63.3
2018-03-11T09:38:13.427Z,63.3
2018-03-11T09:39:04.109Z,63.4
2018-03-11T09:39:54.233Z,63.4
2018-03-11T09:40:44.594Z,63.5
2018-03-11T09:41:34.946Z,63.6
2018-03-11T09:42:24.213Z,63.6
2018-03-11T09:43:15.057Z,63.7
2018-03-11T09:44:05.134Z,63.8
2018-03-11T09:44:55.150Z,63.8
2018-03-11T09:45:44.749Z,63.9
2018-03-11T09:46:35.014Z,63.9
2018-03-11T09:47:25.091Z,64
2018-03-11T09:48:15.123Z,64.1
2018-03-11T09:49:04.704Z,64.1
2018-03-11T09:49:54.568Z,64.2
2018-03-11T09:50:45.109Z,64.3
2018-03-11T09:51:34.825Z,64.3
2018-03-11T09:52:24.760Z,64.4
2018-03-11T09:53:15.013Z,64.4
2018-03-11T09:54:04.969Z,64.5
2018-03-11T09:54:55.898Z,64.6
2018-03-11T09:55:45.683Z,64.6
2018-03-11T09:56:35.460Z,64.7
2018-03-11T09:57:24.997Z,64.8
2018-03-11T09:58:15.665Z,64.8
2018-03-11T09:59:05.355Z,64.9
2018-03-11T09:59:55.492Z,64.9
2018-03-11T10:00:45.755Z,65
2018-03-11T10:01:36.400Z,65.1
2018-03-11T10:02:25.475Z,65.1
2018-03-11T10:03:16.327Z,65.2
2018-03-11T10:04:06.292Z,65.3
2018-03-11T10:04:56.368Z,65.3
2018-03-11T10:05:45.544Z,65.4
2018-03-11T10:06:36.182Z,65.4
2018-03-11T10:07:26.567Z,65.5
2018-03-11T10:08:15.534Z,65.6
2018-03-11T10:09:06.167Z,65.6
2018-03-11T10:09:55.642Z,65.7
2018-03-11T10:10:46.325Z,65.8
2018-03-11T10:11:36.568Z,65.8
2018-03-11T10:12:27.240Z,65.9
2018-03-11T10:13:16.775Z,65.9
2018-03-11T10:14:06.287Z,66
2018-03-11T10:14:56.359Z,66.1
2018-03-11T10:15:46.358Z,66.1
2018-03-11T10:16:37.012Z,66.2
2018-03-11T10:17:26.989Z,66.2
2018-03-11T10:18:16.639Z,66.3
2018-03-11T10:19:07.097Z,66.3
2018-03-11T10:19:57.340Z,66.3
2018-03-11T10:20:47.020Z,66.4
2018-03-11T10:21:36.491Z,66.4
2018-03-11T10:22:26.939Z,66.5
2018-03-11T10:23:17.492Z,66.5
2018-03-11T10:24:07.457Z,66.6
2018-03-11T10:24:57.784Z,66.6
2018-03-11T10:25:47.859Z,66.7
2018-03-11T10:26:37.716Z,66.8
2018-03-11T10:27:28.000Z,66.8
2018-03-11T10:28:16.868Z,66.9
2018-03-11T10:29:07.519Z,66.9
2018-03-11T10:29:57.293Z,67
2018-03-11T10:30:47.644Z,67.1
2018-03-11T10:31:37.728Z,67.1
2018-03-11T10:32:28.374Z,67.2
2018-03-11T10:33:17.829Z,67.3
2018-03-11T10:34:08.191Z,67.3
2018-03-11T10:34:57.775Z,67.4
2018-03-11T10:35:48.053Z,67.4
2018-03-11T10:36:38.660Z,67.4
2018-03-11T10:37:27.736Z,67.5
2018-03-11T10:38:18.092Z,67.6
2018-03-11T10:39:08.556Z,67.6
2018-03-11T10:39:57.648Z,67.7
2018-03-11T10:40:48.958Z,67.8
2018-03-11T10:41:38.815Z,67.8
2018-03-11T10:42:28.816Z,67.9
2018-03-11T10:43:18.885Z,67.9
2018-03-11T10:44:08.903Z,68
2018-03-11T10:44:59.580Z,68.1
2018-03-11T10:45:49.023Z,68.1
2018-03-11T10:46:39.107Z,68.2
2018-03-11T10:47:28.972Z,68.3
2018-03-11T10:48:19.022Z,68.3
2018-03-11T10:49:10.086Z,68.4
2018-03-11T10:49:59.443Z,68.4
2018-03-11T10:50:49.484Z,68.5
2018-03-11T10:51:39.534Z,68.5
2018-03-11T10:52:30.096Z,68.6
2018-03-11T10:53:19.647Z,68.6
2018-03-11T10:54:09.623Z,68.7
2018-03-11T10:54:59.315Z,68.8
2018-03-11T10:55:50.083Z,68.8
2018-03-11T10:56:40.154Z,68.9
2018-03-11T10:57:29.320Z,68.9
2018-03-11T10:58:19.869Z,68.9
2018-03-11T10:59:09.520Z,69
2018-03-11T10:59:59.076Z,69.1
2018-03-11T11:00:50.439Z,69.1
2018-03-11T11:01:39.499Z,69.2
2018-03-11T11:02:30.142Z,69.2
2018-03-11T11:03:20.400Z,69.3
2018-03-11T11:04:10.385Z,69.3
2018-03-11T11:05:00.007Z,69.4
2018-03-11T11:05:49.935Z,69.4
2018-03-11T11:06:40.084Z,69.5
2018-03-11T11:07:30.625Z,69.5
2018-03-11T11:08:20.196Z,69.6
2018-03-11T11:09:10.049Z,69.6
2018-03-11T11:10:00.118Z,69.7
2018-03-11T11:10:50.654Z,69.8
2018-03-11T11:11:40.929Z,69.8
2018-03-11T11:12:30.997Z,69.8
2018-03-11T11:13:21.615Z,69.9
2018-03-11T11:14:10.498Z,69.9
2018-03-11T11:15:00.581Z,70
2018-03-11T11:15:51.223Z,70.1
2018-03-11T11:16:41.076Z,70.1
2018-03-11T11:17:31.361Z,70.1
2018-03-11T11:18:20.403Z,70.2
2018-03-11T11:19:10.883Z,70.3
2018-03-11T11:20:01.814Z,70.3
2018-03-11T11:20:51.978Z,70.3
2018-03-11T11:21:41.531Z,70.4
2018-03-11T11:22:31.314Z,70.4
2018-03-11T11:23:21.367Z,70.4
2018-03-11T11:24:11.543Z,70.5
2018-03-11T11:25:02.445Z,70.6
2018-03-11T11:25:52.214Z,70.6
2018-03-11T11:26:42.364Z,70.7
2018-03-11T11:27:32.627Z,70.7
2018-03-11T11:28:22.665Z,70.8
2018-03-11T11:29:12.467Z,70.8
2018-03-11T11:30:02.813Z,70.8
2018-03-11T11:30:52.310Z,70.9
2018-03-11T11:31:42.913Z,70.9
2018-03-11T11:32:32.973Z,70.9
2018-03-11T11:33:22.805Z,71
2018-03-11T11:34:13.103Z,71.1
2018-03-11T11:35:03.276Z,71.1
2018-03-11T11:35:53.282Z,71.1
2018-03-11T11:36:43.297Z,71.2
2018-03-11T11:37:33.495Z,71.3
2018-03-11T11:38:23.419Z,71.3
2018-03-11T11:39:13.462Z,71.3
2018-03-11T11:40:03.343Z,71.3
2018-03-11T11:40:53.309Z,71.4
2018-03-11T11:41:43.369Z,71.4
